Time;durP1;ratioP1;P1;durP2;ratioP2;P2;SDS_P1;SDS_P2;PMS_P1;PMS_P2;Temp;Humidity;BMP_temperature;BMP_pressure;BME280_temperature;BME280_humidity;BME280_pressure;Samples;Min_cycle;Max_cycle;Signal;HPM_P1;HPM_P2
2022/12/11 00:01:18;;;;;;;;;;;;;;;;;;5031304;28;19929;-72
2022/12/11 00:03:44;;;;;;;;;;;;;;;;;;5031382;28;20011;-74
2022/12/11 00:06:12;;;;;;;;;;;;;;;;;;5031065;28;19932;-71
2022/12/11 00:08:39;;;;;;;;;;;;;;;;;;5031214;28;19929;-73
2022/12/11 00:14:08;;;;;;;;;;;;;;;;;;5027209;28;20295;-72
2022/12/11 00:16:36;;;;;;;;;;;;;;;;;;5030855;28;19929;-72
2022/12/11 00:19:03;;;;;;;;;;;;;;;;;;5030839;28;20012;-72
2022/12/11 00:21:29;;;;;;;;;;;;;;;;;;5030425;28;20015;-73
2022/12/11 00:23:56;;;;;;;;;;;;;;;;;;5030923;28;19925;-72
2022/12/11 00:26:22;;;;;;;;;;;;;;;;;;5030654;28;19925;-72
2022/12/11 00:28:52;;;;;;;;;;;;;;;;;;5030947;28;19925;-73
2022/12/11 00:31:19;;;;;;;;;;;;;;;;;;5029993;28;19924;-73
2022/12/11 00:33:47;;;;;;;;;;;;;;;;;;5030699;28;19932;-76
2022/12/11 00:36:15;;;;;;;;;;;;;;;;;;5030591;28;19925;-73
2022/12/11 00:38:41;;;;;;;;;;;;;;;;;;5030301;28;20020;-73
2022/12/11 00:41:08;;;;;;;;;;;;;;;;;;5030244;28;20364;-73
2022/12/11 00:43:34;;;;;;;;;;;;;;;;;;5029957;28;19931;-74
2022/12/11 00:46:01;;;;;;;;;;;;;;;;;;5030226;28;20426;-74
2022/12/11 00:48:27;;;;;;;;;;;;;;;;;;5031456;28;20008;-75
2022/12/11 00:50:55;;;;;;;;;;;;;;;;;;5027911;28;19994;-73
2022/12/11 00:53:22;;;;;;;;;;;;;;;;;;5031838;28;19987;-73
2022/12/11 00:55:48;;;;;;;;;;;;;;;;;;5032050;28;19973;-73
2022/12/11 00:58:15;;;;;;;;;;;;;;;;;;5031982;28;20028;-73
2022/12/11 01:00:42;;;;;;;;;;;;;;;;;;5033348;28;19925;-74
2022/12/11 01:03:09;;;;;;;;;;;;;;;;;;5036343;28;20071;-74
2022/12/11 01:05:35;;;;;;;;;;;;;;;;;;5036456;28;19926;-74
2022/12/11 01:08:03;;;;;;;;;;;;;;;;;;5035959;28;20020;-74
2022/12/11 01:10:29;;;;;;;;;;;;;;;;;;5035437;28;19960;-74
2022/12/11 01:12:56;;;;;;;;;;;;;;;;;;5036099;28;20396;-74
2022/12/11 01:15:24;;;;;;;;;;;;;;;;;;5035924;28;19933;-73
2022/12/11 01:17:50;;;;;;;;;;;;;;;;;;5036299;28;20020;-74
2022/12/11 01:20:17;;;;;;;;;;;;;;;;;;5035675;28;20014;-74
2022/12/11 01:22:43;;;;;;;;;;;;;;;;;;5035899;28;19925;-74
2022/12/11 01:25:11;;;;;;;;;;;;;;;;;;5035581;28;19971;-74
2022/12/11 01:27:38;;;;;;;;;;;;;;;;;;5036049;28;19925;-74
2022/12/11 01:30:06;;;;;;;;;;;;;;;;;;5035503;28;19924;-74
2022/12/11 01:32:33;;;;;;;;;;;;;;;;;;5035194;28;19925;-74
2022/12/11 01:34:59;;;;;;;;;;;;;;;;;;5035446;28;19925;-75
2022/12/11 01:37:26;;;;;;;;;;;;;;;;;;5035525;28;19926;-74
2022/12/11 01:39:52;;;;;;;;;;;;;;;;;;5035125;28;19939;-74
2022/12/11 01:42:20;;;;;;;;;;;;;;;;;;5035286;28;19932;-72
2022/12/11 01:45:17;;;;;;;;;;;;;;;;;;5035505;28;19932;-73
2022/12/11 01:47:43;;;;;;;;;;;;;;;;;;5013106;28;20020;-73
2022/12/11 01:50:10;;;;;;;;;;;;;;;;;;5029546;28;20016;-73
2022/12/11 01:52:36;;;;;;;;;;;;;;;;;;5034657;28;20007;-73
2022/12/11 01:55:03;;;;;;;;;;;;;;;;;;5035465;28;19925;-74
2022/12/11 01:57:31;;;;;;;;;;;;;;;;;;5034840;28;19925;-73
2022/12/11 01:59:57;;;;;;;;;;;;;;;;;;5034855;28;19956;-73
2022/12/11 02:02:26;;;;;;;;;;;;;;;;;;5034949;28;19960;-73
2022/12/11 02:04:52;;;;;;;;;;;;;;;;;;5034623;28;20574;-73
2022/12/11 02:07:18;;;;;;;;;;;;;;;;;;5035355;28;19932;-72
2022/12/11 02:09:46;;;;;;;;;;;;;;;;;;5034532;28;19972;-73
2022/12/11 02:12:15;;;;;;;;;;;;;;;;;;5033850;28;20004;-73
2022/12/11 02:14:44;;;;;;;;;;;;;;;;;;5034287;28;20012;-73
2022/12/11 02:17:12;;;;;;;;;;;;;;;;;;5034594;28;20000;-72
2022/12/11 02:19:45;;;;;;;;;;;;;;;;;;5034536;28;20009;-73
2022/12/11 02:22:15;;;;;;;;;;;;;;;;;;5034496;28;19944;-73
2022/12/11 02:24:51;;;;;;;;;;;;;;;;;;5034311;28;19933;-73
2022/12/11 02:27:27;;;;;;;;;;;;;;;;;;5015098;28;19926;-73
2022/12/11 02:29:57;;;;;;;;;;;;;;;;;;5019496;28;19931;-72
2022/12/11 02:32:26;;;;;;;;;;;;;;;;;;5034095;28;19964;-72
2022/12/11 02:34:55;;;;;;;;;;;;;;;;;;5034498;28;20368;-73
2022/12/11 02:37:23;;;;;;;;;;;;;;;;;;5034464;28;20040;-72
2022/12/11 02:39:52;;;;;;;;;;;;;;;;;;5034063;28;19925;-72
2022/12/11 02:42:19;;;;;;;;;;;;;;;;;;5033359;28;19925;-72
2022/12/11 02:44:46;;;;;;;;;;;;;;;;;;5034264;28;19940;-73
2022/12/11 02:47:16;;;;;;;;;;;;;;;;;;5034455;28;20020;-73
2022/12/11 02:49:45;;;;;;;;;;;;;;;;;;5034509;28;20035;-73
2022/12/11 02:52:12;;;;;;;;;;;;;;;;;;5034510;28;19972;-73
2022/12/11 02:54:39;;;;;;;;;;;;;;;;;;5034153;28;19980;-74
2022/12/11 02:57:07;;;;;;;;;;;;;;;;;;5034408;28;19929;-73
2022/12/11 02:59:35;;;;;;;;;;;;;;;;;;5034331;28;19969;-72
2022/12/11 03:02:02;;;;;;;;;;;;;;;;;;5034383;28;19925;-73
2022/12/11 03:04:30;;;;;;;;;;;;;;;;;;5033697;28;19925;-73
2022/12/11 03:06:59;;;;;;;;;;;;;;;;;;5034137;28;20032;-73
2022/12/11 03:09:25;;;;;;;;;;;;;;;;;;5033714;28;19940;-73
2022/12/11 03:11:52;;;;;;;;;;;;;;;;;;5033380;28;19925;-73
2022/12/11 03:14:18;;;;;;;;;;;;;;;;;;5033662;28;19925;-73
2022/12/11 03:16:50;;;;;;;;;;;;;;;;;;5034236;28;19925;-74
2022/12/11 03:19:19;;;;;;;;;;;;;;;;;;5033837;28;19925;-74
2022/12/11 03:21:52;;;;;;;;;;;;;;;;;;5034254;28;19925;-73
2022/12/11 03:24:20;;;;;;;;;;;;;;;;;;5032425;28;20392;-73
2022/12/11 03:26:50;;;;;;;;;;;;;;;;;;5033459;28;20384;-73
2022/12/11 03:29:19;;;;;;;;;;;;;;;;;;5033776;28;19990;-74
2022/12/11 03:31:48;;;;;;;;;;;;;;;;;;5033245;28;19925;-73
2022/12/11 03:34:18;;;;;;;;;;;;;;;;;;5032844;28;19925;-73
2022/12/11 03:36:46;;;;;;;;;;;;;;;;;;5033217;28;19931;-73
2022/12/11 03:39:17;;;;;;;;;;;;;;;;;;5033041;28;20430;-73
2022/12/11 03:41:43;;;;;;;;;;;;;;;;;;5032950;28;19925;-73
2022/12/11 03:44:11;;;;;;;;;;;;;;;;;;5033056;28;19925;-73
2022/12/11 03:46:38;;;;;;;;;;;;;;;;;;5033239;28;19929;-73
2022/12/11 03:49:07;;;;;;;;;;;;;;;;;;5033002;28;19925;-73
2022/12/11 03:51:34;;;;;;;;;;;;;;;;;;5032877;28;19931;-73
2022/12/11 03:54:01;;;;;;;;;;;;;;;;;;5032650;28;20543;-73
2022/12/11 03:56:30;;;;;;;;;;;;;;;;;;5033088;28;19932;-73
2022/12/11 03:58:56;;;;;;;;;;;;;;;;;;5032942;28;20384;-73
2022/12/11 04:01:22;;;;;;;;;;;;;;;;;;5032763;28;19929;-73
2022/12/11 04:03:49;;;;;;;;;;;;;;;;;;5032626;28;19925;-73
2022/12/11 04:06:15;;;;;;;;;;;;;;;;;;5032489;28;20426;-72
2022/12/11 04:11:46;;;;;;;;;;;;;;;;;;5056545;22;19998;-76
2022/12/11 04:16:57;;;;;;;;;;;;;;;;;;5061075;28;20405;-76
2022/12/11 04:24:53;;;;;;;;;;;;;;;;;;5077334;28;19982;-77
2022/12/11 04:30:01;;;;;;;;;;;;;;;;;;5087600;28;19960;-77
2022/12/11 04:32:27;;;;;;;;;;;;;;;;;;5084998;28;19925;-77
2022/12/11 04:34:53;;;;;;;;;;;;;;;;;;5074157;28;19924;-76
2022/12/11 04:37:20;;;;;;;;;;;;;;;;;;5079136;28;19924;-76
2022/12/11 04:39:46;;;;;;;;;;;;;;;;;;5093636;28;20008;-77
2022/12/11 04:42:13;;;;;;;;;;;;;;;;;;5086494;28;19931;-77
2022/12/11 04:44:41;;;;;;;;;;;;;;;;;;5081896;28;19931;-77
2022/12/11 04:47:07;;;;;;;;;;;;;;;;;;5091822;28;20015;-77
2022/12/11 04:49:35;;;;;;;;;;;;;;;;;;5094400;28;20141;-77
2022/12/11 04:52:02;;;;;;;;;;;;;;;;;;5088336;28;19925;-77
2022/12/11 04:54:29;;;;;;;;;;;;;;;;;;5072887;28;19925;-77
2022/12/11 04:56:55;;;;;;;;;;;;;;;;;;5072132;28;20015;-77
2022/12/11 04:59:22;;;;;;;;;;;;;;;;;;5072054;28;20409;-76
2022/12/11 05:01:50;;;;;;;;;;;;;;;;;;5077339;28;19931;-78
2022/12/11 05:04:16;;;;;;;;;;;;;;;;;;5092228;28;19930;-78
2022/12/11 05:06:42;;;;;;;;;;;;;;;;;;5073510;28;20012;-78
2022/12/11 05:09:10;;;;;;;;;;;;;;;;;;5072299;28;19925;-78
2022/12/11 05:11:37;;;;;;;;;;;;;;;;;;5074017;28;19934;-77
2022/12/11 05:14:03;;;;;;;;;;;;;;;;;;5090553;28;20014;-77
2022/12/11 05:16:30;;;;;;;;;;;;;;;;;;5090501;28;19932;-77
2022/12/11 05:18:57;;;;;;;;;;;;;;;;;;5071650;28;19925;-77
2022/12/11 05:21:24;;;;;;;;;;;;;;;;;;5071662;28;19928;-77
2022/12/11 05:23:50;;;;;;;;;;;;;;;;;;5092068;28;19924;-77
2022/12/11 05:26:18;;;;;;;;;;;;;;;;;;5076539;28;19925;-77
2022/12/11 05:28:44;;;;;;;;;;;;;;;;;;5090737;28;20007;-78
2022/12/11 05:31:12;;;;;;;;;;;;;;;;;;5092159;28;19975;-80
2022/12/11 05:33:39;;;;;;;;;;;;;;;;;;5073839;28;20355;-77
2022/12/11 05:36:07;;;;;;;;;;;;;;;;;;5072339;28;19925;-77
2022/12/11 05:38:34;;;;;;;;;;;;;;;;;;5088127;28;20006;-78
2022/12/11 05:41:01;;;;;;;;;;;;;;;;;;5091804;28;20398;-77
2022/12/11 05:43:29;;;;;;;;;;;;;;;;;;5091682;28;19930;-78
2022/12/11 05:45:56;;;;;;;;;;;;;;;;;;5086855;28;20027;-77
2022/12/11 05:48:22;;;;;;;;;;;;;;;;;;5090464;28;20426;-76
2022/12/11 05:50:58;;;;;;;;;;;;;;;;;;5095247;28;19924;-77
2022/12/11 05:53:26;;;;;;;;;;;;;;;;;;5083701;28;19924;-78
2022/12/11 05:55:52;;;;;;;;;;;;;;;;;;5092603;28;20306;-77
2022/12/11 05:58:18;;;;;;;;;;;;;;;;;;5092731;28;19925;-76
2022/12/11 06:00:45;;;;;;;;;;;;;;;;;;5094702;28;19923;-77
2022/12/11 06:03:11;;;;;;;;;;;;;;;;;;5074934;28;20027;-76
2022/12/11 06:05:38;;;;;;;;;;;;;;;;;;5075017;28;19931;-77
2022/12/11 06:08:04;;;;;;;;;;;;;;;;;;5079092;28;19943;-77
2022/12/11 06:10:32;;;;;;;;;;;;;;;;;;5075702;28;20010;-77
2022/12/11 06:12:59;;;;;;;;;;;;;;;;;;5092221;28;19928;-77
2022/12/11 06:15:25;;;;;;;;;;;;;;;;;;5096886;28;20023;-77
2022/12/11 06:17:51;;;;;;;;;;;;;;;;;;5089533;28;20375;-77
2022/12/11 06:20:18;;;;;;;;;;;;;;;;;;5095421;28;19931;-77
2022/12/11 06:22:44;;;;;;;;;;;;;;;;;;5093972;28;20294;-77
2022/12/11 06:25:11;;;;;;;;;;;;;;;;;;5095225;28;20007;-77
2022/12/11 06:27:38;;;;;;;;;;;;;;;;;;5089392;28;19928;-77
2022/12/11 06:30:05;;;;;;;;;;;;;;;;;;5092289;28;20007;-78
2022/12/11 06:32:32;;;;;;;;;;;;;;;;;;5094111;28;19928;-78
2022/12/11 06:34:58;;;;;;;;;;;;;;;;;;5086808;28;19925;-77
2022/12/11 06:37:24;;;;;;;;;;;;;;;;;;5074475;28;20024;-78
2022/12/11 06:39:51;;;;;;;;;;;;;;;;;;5087366;28;20015;-77
2022/12/11 06:42:17;;;;;;;;;;;;;;;;;;5074119;28;19975;-77
2022/12/11 06:44:45;;;;;;;;;;;;;;;;;;5075964;28;20383;-77
2022/12/11 06:47:11;;;;;;;;;;;;;;;;;;5074889;28;19924;-78
2022/12/11 06:49:38;;;;;;;;;;;;;;;;;;5089070;28;19931;-77
2022/12/11 06:52:05;;;;;;;;;;;;;;;;;;5094410;28;19924;-77
2022/12/11 06:54:32;;;;;;;;;;;;;;;;;;5093727;28;20433;-78
2022/12/11 06:56:58;;;;;;;;;;;;;;;;;;5092808;28;20382;-78
2022/12/11 06:59:25;;;;;;;;;;;;;;;;;;5082646;28;19924;-78
2022/12/11 07:01:52;;;;;;;;;;;;;;;;;;5079173;28;20010;-77
2022/12/11 07:04:19;;;;;;;;;;;;;;;;;;5094871;28;19924;-77
2022/12/11 07:06:46;;;;;;;;;;;;;;;;;;5094708;28;19971;-76
2022/12/11 07:09:12;;;;;;;;;;;;;;;;;;5082299;28;19985;-77
2022/12/11 07:11:39;;;;;;;;;;;;;;;;;;5077977;28;19929;-77
2022/12/11 07:14:05;;;;;;;;;;;;;;;;;;5076459;28;20306;-78
2022/12/11 07:16:31;;;;;;;;;;;;;;;;;;5091701;28;19925;-78
2022/12/11 07:19:00;;;;;;;;;;;;;;;;;;5097134;28;20367;-78
2022/12/11 07:21:26;;;;;;;;;;;;;;;;;;5091725;28;20010;-78
2022/12/11 07:23:53;;;;;;;;;;;;;;;;;;5094570;28;19930;-78
2022/12/11 07:26:20;;;;;;;;;;;;;;;;;;5082743;28;20318;-78
2022/12/11 07:28:47;;;;;;;;;;;;;;;;;;5074682;28;20432;-78
2022/12/11 07:31:18;;;;;;;;;;;;;;;;;;5088525;28;19930;-78
2022/12/11 07:33:44;;;;;;;;;;;;;;;;;;5094109;28;20398;-78
2022/12/11 07:36:13;;;;;;;;;;;;;;;;;;5094598;28;19925;-77
2022/12/11 07:38:40;;;;;;;;;;;;;;;;;;5097966;28;19932;-77
2022/12/11 07:41:08;;;;;;;;;;;;;;;;;;5094164;28;19990;-78
2022/12/11 07:43:35;;;;;;;;;;;;;;;;;;5077729;28;19924;-77
2022/12/11 07:46:02;;;;;;;;;;;;;;;;;;5075541;28;19925;-78
2022/12/11 07:48:28;;;;;;;;;;;;;;;;;;5074630;28;19932;-79
2022/12/11 07:50:55;;;;;;;;;;;;;;;;;;5090029;28;20298;-78
2022/12/11 07:53:22;;;;;;;;;;;;;;;;;;5089671;28;19947;-78
2022/12/11 07:55:49;;;;;;;;;;;;;;;;;;5093912;28;19959;-79
2022/12/11 07:58:15;;;;;;;;;;;;;;;;;;5093694;28;19971;-78
2022/12/11 08:00:43;;;;;;;;;;;;;;;;;;5092960;28;19924;-77
2022/12/11 08:03:10;;;;;;;;;;;;;;;;;;5074231;28;20391;-77
2022/12/11 08:05:36;;;;;;;;;;;;;;;;;;5091318;28;19924;-77
2022/12/11 08:08:03;;;;;;;;;;;;;;;;;;5093454;28;20014;-77
2022/12/11 08:10:31;;;;;;;;;;;;;;;;;;5075661;28;20357;-77
2022/12/11 08:12:57;;;;;;;;;;;;;;;;;;5072784;28;20011;-77
2022/12/11 08:15:23;;;;;;;;;;;;;;;;;;5074662;28;19968;-76
2022/12/11 08:17:50;;;;;;;;;;;;;;;;;;5073026;28;19971;-77
2022/12/11 08:20:17;;;;;;;;;;;;;;;;;;5081850;28;20487;-76
2022/12/11 08:22:43;;;;;;;;;;;;;;;;;;5084665;28;20005;-76
2022/12/11 08:25:09;;;;;;;;;;;;;;;;;;5093789;28;19924;-77
2022/12/11 08:27:37;;;;;;;;;;;;;;;;;;5085544;28;20354;-78
2022/12/11 08:30:05;;;;;;;;;;;;;;;;;;5077119;28;19924;-78
2022/12/11 08:32:31;;;;;;;;;;;;;;;;;;5089124;28;20367;-77
2022/12/11 08:34:57;;;;;;;;;;;;;;;;;;5073471;28;20023;-77
2022/12/11 08:37:24;;;;;;;;;;;;;;;;;;5073162;28;20019;-77
2022/12/11 08:39:50;;;;;;;;;;;;;;;;;;5091069;28;20398;-76
2022/12/11 08:42:17;;;;;;;;;;;;;;;;;;5092049;28;20477;-77
2022/12/11 08:44:45;;;;;;;;;;;;;;;;;;5084411;28;20365;-77
2022/12/11 08:47:11;;;;;;;;;;;;;;;;;;5093430;28;20011;-77
2022/12/11 08:49:38;;;;;;;;;;;;;;;;;;5094038;28;19924;-77
2022/12/11 08:52:04;;;;;;;;;;;;;;;;;;5090980;28;20458;-77
2022/12/11 08:54:31;;;;;;;;;;;;;;;;;;5084172;28;19966;-75
2022/12/11 08:56:58;;;;;;;;;;;;;;;;;;5092081;28;19928;-76
2022/12/11 08:59:24;;;;;;;;;;;;;;;;;;5072402;28;20335;-77
2022/12/11 09:01:54;;;;;;;;;;;;;;;;;;5072745;28;19931;-77
2022/12/11 09:04:21;;;;;;;;;;;;;;;;;;5092186;28;19977;-77
2022/12/11 09:06:48;;;;;;;;;;;;;;;;;;5073734;28;20011;-77
2022/12/11 09:09:15;;;;;;;;;;;;;;;;;;5074546;28;19929;-77
2022/12/11 09:11:41;;;;;;;;;;;;;;;;;;5073398;28;20383;-77
2022/12/11 09:14:08;;;;;;;;;;;;;;;;;;5075494;28;19924;-77
2022/12/11 09:16:36;;;;;;;;;;;;;;;;;;5078419;28;20011;-78
2022/12/11 09:19:04;;;;;;;;;;;;;;;;;;5094281;28;20282;-78
2022/12/11 09:21:30;;;;;;;;;;;;;;;;;;5095854;28;19924;-76
2022/12/11 09:23:58;;;;;;;;;;;;;;;;;;5097633;28;20047;-76
2022/12/11 09:26:24;;;;;;;;;;;;;;;;;;5094809;28;19932;-77
2022/12/11 09:28:52;;;;;;;;;;;;;;;;;;5096494;28;19928;-77
2022/12/11 09:31:19;;;;;;;;;;;;;;;;;;5095384;28;19928;-78
2022/12/11 09:33:46;;;;;;;;;;;;;;;;;;5096566;28;20141;-78
2022/12/11 09:36:14;;;;;;;;;;;;;;;;;;5087822;28;19963;-77
2022/12/11 09:38:42;;;;;;;;;;;;;;;;;;5076005;28;20027;-78
2022/12/11 09:41:22;;;;;;;;;;;;;;;;;;5075577;28;20383;-77
2022/12/11 09:43:51;;;;;;;;;;;;;;;;;;5086021;28;20395;-77
2022/12/11 09:46:19;;;;;;;;;;;;;;;;;;5083795;28;19963;-77
2022/12/11 09:48:47;;;;;;;;;;;;;;;;;;5091871;28;20019;-77
2022/12/11 09:51:18;;;;;;;;;;;;;;;;;;5095830;28;19986;-77
2022/12/11 09:53:45;;;;;;;;;;;;;;;;;;5095830;28;19969;-78
2022/12/11 09:56:16;;;;;;;;;;;;;;;;;;5089578;28;19924;-78
2022/12/11 09:58:49;;;;;;;;;;;;;;;;;;5095701;28;19978;-77
2022/12/11 10:01:22;;;;;;;;;;;;;;;;;;5096341;28;19978;-85
2022/12/11 10:04:05;;;;;;;;;;;;;;;;;;5084902;28;19979;-75
2022/12/11 10:06:36;;;;;;;;;;;;;;;;;;5086849;28;20432;-76
2022/12/11 10:09:07;;;;;;;;;;;;;;;;;;5080961;28;19971;-76
2022/12/11 10:11:45;;;;;;;;;;;;;;;;;;5082602;28;19994;-75
2022/12/11 10:14:17;;;;;;;;;;;;;;;;;;5095189;28;20019;-75
2022/12/11 10:16:45;;;;;;;;;;;;;;;;;;5087864;28;19925;-75
2022/12/11 10:19:14;;;;;;;;;;;;;;;;;;5075804;28;20015;-76
2022/12/11 10:21:43;;;;;;;;;;;;;;;;;;5092554;28;19924;-75
2022/12/11 10:24:14;;;;;;;;;;;;;;;;;;5098973;28;19971;-76
2022/12/11 10:26:40;;;;;;;;;;;;;;;;;;5069601;22;20023;-73
2022/12/11 10:29:12;;;;;;;;;;;;;;;;;;5053183;28;19941;-74
2022/12/11 10:31:44;;;;;;;;;;;;;;;;;;5042121;28;19929;-74
2022/12/11 10:34:12;;;;;;;;;;;;;;;;;;5033879;28;19972;-73
2022/12/11 10:36:40;;;;;;;;;;;;;;;;;;5031478;28;20024;-73
2022/12/11 10:39:13;;;;;;;;;;;;;;;;;;5022160;28;20012;-74
2022/12/11 10:41:42;;;;;;;;;;;;;;;;;;5034325;28;19976;-73
2022/12/11 10:44:16;;;;;;;;;;;;;;;;;;5033789;28;19971;-73
2022/12/11 10:46:43;;;;;;;;;;;;;;;;;;5032694;28;19932;-73
2022/12/11 10:49:20;;;;;;;;;;;;;;;;;;5034312;28;19976;-75
2022/12/11 10:51:47;;;;;;;;;;;;;;;;;;5035369;28;20008;-73
2022/12/11 10:54:25;;;;;;;;;;;;;;;;;;5034508;28;19925;-73
2022/12/11 10:56:52;;;;;;;;;;;;;;;;;;5034309;28;19980;-74
2022/12/11 10:59:23;;;;;;;;;;;;;;;;;;5034487;28;20513;-75
2022/12/11 11:01:49;;;;;;;;;;;;;;;;;;5034055;28;20371;-73
2022/12/11 11:04:20;;;;;;;;;;;;;;;;;;5034938;28;19988;-73
2022/12/11 11:06:47;;;;;;;;;;;;;;;;;;5034761;28;19925;-74
2022/12/11 11:09:28;;;;;;;;;;;;;;;;;;5034113;28;19926;-73
2022/12/11 11:11:55;;;;;;;;;;;;;;;;;;5034413;28;19926;-72
2022/12/11 11:14:22;;;;;;;;;;;;;;;;;;5034159;28;19979;-74
2022/12/11 11:16:49;;;;;;;;;;;;;;;;;;5035148;28;19932;-72
2022/12/11 11:19:20;;;;;;;;;;;;;;;;;;5037212;28;19971;-74
2022/12/11 11:21:49;;;;;;;;;;;;;;;;;;5035225;28;19925;-74
2022/12/11 11:24:23;;;;;;;;;;;;;;;;;;5038577;28;19925;-74
2022/12/11 11:26:51;;;;;;;;;;;;;;;;;;5051682;28;19932;-73
2022/12/11 11:29:24;;;;;;;;;;;;;;;;;;5050545;28;19968;-72
2022/12/11 11:31:51;;;;;;;;;;;;;;;;;;5053559;28;19972;-73
2022/12/11 11:37:26;;;;;;;;;;;;;;;;;;5050818;28;19977;-74
2022/12/11 11:39:55;;;;;;;;;;;;;;;;;;5053775;28;20003;-73
2022/12/11 11:42:26;;;;;;;;;;;;;;;;;;5053945;28;19929;-74
2022/12/11 11:44:59;;;;;;;;;;;;;;;;;;5053219;28;19931;-74
2022/12/11 11:47:27;;;;;;;;;;;;;;;;;;5050869;28;19925;-74
2022/12/11 11:50:00;;;;;;;;;;;;;;;;;;5047220;28;20015;-74
2022/12/11 11:52:29;;;;;;;;;;;;;;;;;;5062333;28;19939;-80
2022/12/11 11:54:59;;;;;;;;;;;;;;;;;;5061265;28;19925;-80
2022/12/11 11:57:32;;;;;;;;;;;;;;;;;;5063925;28;20380;-80
2022/12/11 12:00:08;;;;;;;;;;;;;;;;;;5065274;28;19925;-83
2022/12/11 12:02:41;;;;;;;;;;;;;;;;;;5065543;28;19924;-74
2022/12/11 12:05:12;;;;;;;;;;;;;;;;;;5046984;28;19975;-80
2022/12/11 12:07:40;;;;;;;;;;;;;;;;;;5043383;28;19948;-79
2022/12/11 12:10:14;;;;;;;;;;;;;;;;;;5041303;28;20328;-74
2022/12/11 12:12:47;;;;;;;;;;;;;;;;;;5055037;28;19931;-77
2022/12/11 12:15:18;;;;;;;;;;;;;;;;;;5048850;28;20015;-74
2022/12/11 12:17:48;;;;;;;;;;;;;;;;;;5051992;28;19932;-74
2022/12/11 12:20:19;;;;;;;;;;;;;;;;;;5052707;28;19932;-73
2022/12/11 12:22:51;;;;;;;;;;;;;;;;;;5052269;28;19931;-74
2022/12/11 12:25:22;;;;;;;;;;;;;;;;;;5052825;28;19925;-74
2022/12/11 12:27:54;;;;;;;;;;;;;;;;;;5052967;28;20008;-74
2022/12/11 12:30:20;;;;;;;;;;;;;;;;;;5054514;28;20362;-72
2022/12/11 12:32:53;;;;;;;;;;;;;;;;;;5054547;28;19931;-73
2022/12/11 12:35:27;;;;;;;;;;;;;;;;;;5056536;28;20371;-74
2022/12/11 12:37:57;;;;;;;;;;;;;;;;;;5058627;28;19988;-74
2022/12/11 12:40:26;;;;;;;;;;;;;;;;;;5065689;28;19959;-74
2022/12/11 12:42:59;;;;;;;;;;;;;;;;;;5059143;28;19925;-73
2022/12/11 12:45:28;;;;;;;;;;;;;;;;;;5060327;28;19991;-76
2022/12/11 12:47:55;;;;;;;;;;;;;;;;;;5066592;28;19925;-74
2022/12/11 12:50:22;;;;;;;;;;;;;;;;;;5064850;28;20130;-75
2022/12/11 12:52:50;;;;;;;;;;;;;;;;;;5055208;28;20291;-75
2022/12/11 12:55:21;;;;;;;;;;;;;;;;;;5053524;28;19975;-74
2022/12/11 12:57:49;;;;;;;;;;;;;;;;;;5053366;28;19998;-76
2022/12/11 13:00:27;;;;;;;;;;;;;;;;;;5053433;28;19925;-75
2022/12/11 13:02:55;;;;;;;;;;;;;;;;;;5065407;28;19929;-76
2022/12/11 13:05:22;;;;;;;;;;;;;;;;;;5046878;28;19933;-75
2022/12/11 13:07:50;;;;;;;;;;;;;;;;;;5056023;28;20016;-74
2022/12/11 13:10:23;;;;;;;;;;;;;;;;;;5056099;28;19929;-76
2022/12/11 13:12:50;;;;;;;;;;;;;;;;;;5036512;28;19929;-75
2022/12/11 13:15:35;;;;;;;;;;;;;;;;;;5041383;28;20447;-75
2022/12/11 13:18:02;;;;;;;;;;;;;;;;;;5069924;28;20007;-74
2022/12/11 13:20:30;;;;;;;;;;;;;;;;;;5077760;28;19967;-75
2022/12/11 13:23:09;;;;;;;;;;;;;;;;;;5076756;28;19925;-75
2022/12/11 13:25:46;;;;;;;;;;;;;;;;;;5072956;28;20019;-75
2022/12/11 13:28:20;;;;;;;;;;;;;;;;;;5053025;28;20020;-75
2022/12/11 13:30:57;;;;;;;;;;;;;;;;;;5054741;28;19939;-73
2022/12/11 13:33:23;;;;;;;;;;;;;;;;;;5056678;28;20020;-75
2022/12/11 13:36:03;;;;;;;;;;;;;;;;;;5057043;28;20311;-75
2022/12/11 13:38:29;;;;;;;;;;;;;;;;;;5053994;28;19968;-75
2022/12/11 13:40:57;;;;;;;;;;;;;;;;;;5061225;28;20405;-75
2022/12/11 13:43:25;;;;;;;;;;;;;;;;;;5052204;28;19988;-75
2022/12/11 13:45:53;;;;;;;;;;;;;;;;;;5044906;28;19948;-75
2022/12/11 13:48:23;;;;;;;;;;;;;;;;;;5053060;28;19968;-74
2022/12/11 13:50:51;;;;;;;;;;;;;;;;;;5052501;28;19933;-76
2022/12/11 13:53:18;;;;;;;;;;;;;;;;;;5052574;28;19968;-74
2022/12/11 13:55:45;;;;;;;;;;;;;;;;;;5060824;28;19919;-81
2022/12/11 13:58:21;;;;;;;;;;;;;;;;;;5057861;28;20008;-77
2022/12/11 14:00:57;;;;;;;;;;;;;;;;;;5053798;28;20366;-74
2022/12/11 14:03:24;;;;;;;;;;;;;;;;;;5050638;28;20392;-75
2022/12/11 14:05:51;;;;;;;;;;;;;;;;;;5044551;28;20401;-74
2022/12/11 14:08:20;;;;;;;;;;;;;;;;;;5051163;28;20313;-74
2022/12/11 14:10:51;;;;;;;;;;;;;;;;;;5055647;28;19931;-75
2022/12/11 14:13:20;;;;;;;;;;;;;;;;;;5056285;28;19924;-73
2022/12/11 14:15:46;;;;;;;;;;;;;;;;;;5054816;28;20012;-76
2022/12/11 14:18:14;;;;;;;;;;;;;;;;;;5054854;28;19935;-74
2022/12/11 14:20:42;;;;;;;;;;;;;;;;;;5054424;28;19931;-73
2022/12/11 14:23:16;;;;;;;;;;;;;;;;;;5054770;28;19924;-73
2022/12/11 14:25:51;;;;;;;;;;;;;;;;;;5054441;28;20024;-73
2022/12/11 14:28:17;;;;;;;;;;;;;;;;;;5054973;28;19925;-73
2022/12/11 14:30:47;;;;;;;;;;;;;;;;;;5054730;28;20027;-74
2022/12/11 14:33:13;;;;;;;;;;;;;;;;;;5054459;28;19929;-75
2022/12/11 14:35:41;;;;;;;;;;;;;;;;;;5054221;28;20004;-73
2022/12/11 14:38:11;;;;;;;;;;;;;;;;;;5054787;28;20007;-74
2022/12/11 14:40:40;;;;;;;;;;;;;;;;;;5054307;28;20011;-72
2022/12/11 14:43:09;;;;;;;;;;;;;;;;;;5054270;28;20276;-74
2022/12/11 14:45:36;;;;;;;;;;;;;;;;;;5054039;28;20387;-75
2022/12/11 14:48:07;;;;;;;;;;;;;;;;;;5054683;28;19976;-73
2022/12/11 14:50:36;;;;;;;;;;;;;;;;;;5054242;28;19929;-74
2022/12/11 14:53:04;;;;;;;;;;;;;;;;;;5054189;28;19936;-74
2022/12/11 14:55:33;;;;;;;;;;;;;;;;;;5053813;28;19925;-74
2022/12/11 14:58:01;;;;;;;;;;;;;;;;;;5054150;28;20363;-73
2022/12/11 15:00:29;;;;;;;;;;;;;;;;;;5054123;28;19924;-74
2022/12/11 15:03:00;;;;;;;;;;;;;;;;;;5053817;28;20439;-74
2022/12/11 15:05:26;;;;;;;;;;;;;;;;;;5053948;28;20327;-74
2022/12/11 15:08:02;;;;;;;;;;;;;;;;;;5054012;28;20425;-74
2022/12/11 15:10:34;;;;;;;;;;;;;;;;;;5053699;28;20450;-75
2022/12/11 15:13:01;;;;;;;;;;;;;;;;;;5053893;28;19929;-74
2022/12/11 15:15:28;;;;;;;;;;;;;;;;;;5053544;28;20015;-74
2022/12/11 15:17:54;;;;;;;;;;;;;;;;;;5053591;28;20379;-75
2022/12/11 15:20:22;;;;;;;;;;;;;;;;;;5053164;28;19939;-74
2022/12/11 15:22:49;;;;;;;;;;;;;;;;;;5053433;28;19924;-74
2022/12/11 15:25:20;;;;;;;;;;;;;;;;;;5052787;28;19925;-74
2022/12/11 15:27:49;;;;;;;;;;;;;;;;;;5054149;28;20023;-73
2022/12/11 15:30:27;;;;;;;;;;;;;;;;;;5054155;28;19936;-73
2022/12/11 15:33:01;;;;;;;;;;;;;;;;;;5054894;28;19929;-72
2022/12/11 15:35:27;;;;;;;;;;;;;;;;;;5054187;28;20012;-74
2022/12/11 15:37:54;;;;;;;;;;;;;;;;;;5053376;28;19935;-75
2022/12/11 15:40:21;;;;;;;;;;;;;;;;;;5053247;28;19924;-74
2022/12/11 15:42:49;;;;;;;;;;;;;;;;;;5053287;28;20354;-74
2022/12/11 15:45:17;;;;;;;;;;;;;;;;;;5052970;28;19925;-75
2022/12/11 15:47:44;;;;;;;;;;;;;;;;;;5053737;28;19931;-74
2022/12/11 15:50:15;;;;;;;;;;;;;;;;;;5052905;28;19948;-74
2022/12/11 15:52:41;;;;;;;;;;;;;;;;;;5052872;28;20338;-74
2022/12/11 15:55:08;;;;;;;;;;;;;;;;;;5053345;28;19925;-74
2022/12/11 15:57:34;;;;;;;;;;;;;;;;;;5054449;28;19985;-76
2022/12/11 16:00:04;;;;;;;;;;;;;;;;;;5053193;28;19925;-75
2022/12/11 16:02:30;;;;;;;;;;;;;;;;;;5053145;28;19928;-75
2022/12/11 16:04:57;;;;;;;;;;;;;;;;;;5050462;28;19925;-75
2022/12/11 16:07:24;;;;;;;;;;;;;;;;;;5053396;28;19929;-75
2022/12/11 16:09:51;;;;;;;;;;;;;;;;;;5052980;28;19944;-75
2022/12/11 16:12:17;;;;;;;;;;;;;;;;;;5050941;28;19924;-73
2022/12/11 16:14:44;;;;;;;;;;;;;;;;;;5044525;28;19928;-79
2022/12/11 16:17:12;;;;;;;;;;;;;;;;;;5053666;28;19931;-76
2022/12/11 16:19:39;;;;;;;;;;;;;;;;;;5054652;28;19967;-77
2022/12/11 16:22:07;;;;;;;;;;;;;;;;;;5052426;28;20306;-73
2022/12/11 16:24:34;;;;;;;;;;;;;;;;;;5052652;28;19929;-75
2022/12/11 16:27:00;;;;;;;;;;;;;;;;;;5049194;28;19929;-75
2022/12/11 16:29:27;;;;;;;;;;;;;;;;;;5059180;28;20276;-74
2022/12/11 16:31:54;;;;;;;;;;;;;;;;;;5054480;28;19936;-75
2022/12/11 16:34:25;;;;;;;;;;;;;;;;;;5052729;28;20394;-76
2022/12/11 16:36:52;;;;;;;;;;;;;;;;;;5055849;28;19931;-77
2022/12/11 16:39:18;;;;;;;;;;;;;;;;;;5053001;28;20358;-76
2022/12/11 16:41:45;;;;;;;;;;;;;;;;;;5052102;28;20003;-74
2022/12/11 16:44:11;;;;;;;;;;;;;;;;;;5052492;28;20012;-76
2022/12/11 16:46:38;;;;;;;;;;;;;;;;;;5052085;28;20315;-75
2022/12/11 16:49:04;;;;;;;;;;;;;;;;;;5066059;22;19932;-76
2022/12/11 16:51:32;;;;;;;;;;;;;;;;;;5065179;28;19931;-76
2022/12/11 16:53:59;;;;;;;;;;;;;;;;;;5066403;28;20003;-76
2022/12/11 16:56:25;;;;;;;;;;;;;;;;;;5071944;28;19931;-77
2022/12/11 16:58:51;;;;;;;;;;;;;;;;;;5071993;28;19977;-77
2022/12/11 17:01:18;;;;;;;;;;;;;;;;;;5071937;28;19925;-77
2022/12/11 17:03:44;;;;;;;;;;;;;;;;;;5071031;28;19931;-77
2022/12/11 17:06:12;;;;;;;;;;;;;;;;;;5071904;28;19924;-77
2022/12/11 17:08:41;;;;;;;;;;;;;;;;;;5072279;28;19925;-78
2022/12/11 17:11:08;;;;;;;;;;;;;;;;;;5072038;28;19931;-77
2022/12/11 17:13:35;;;;;;;;;;;;;;;;;;5071828;28;19932;-77